Portada
METAR-TAF:

METAR-TAF

Aeroports :

Makhatxkalà, Rússia

latitud: 42-49-01N, longitud: 047-39-08E, altitud: 4 m

Observació

L'informe es va fer fa 35 minuts, a les 22:00 UTC
Vent 10 kt del Oest
Temperatura 31°C
Humitat 43%
Pressió 1011 hPa
Visibilitat 10 km o més
Núvols disperses a una alçada de 25000 ft, Cumulonimbus.
tempesta

METAR: URML 252200Z 27005MPS 9999 TS SCT250CB 31/17 Q1011 R14/010070 TEMPO VRB07G14MPS -TSRA BKN050CB RMK QFE758/1011

Hora: 01:35 (22:35 UTC)

Pronòstic

L'informe es va fer fa 2 hores i 35 minuts, a les 20:00 UTC
Pronòstic vàlid del 25 a les 21 UTC al 26 a les 06 UTC
Vent 6 kt del Oest amb ràfegues de 19 kt
Visibilitat 10 km o més
Núvols disperses a una alçada de 5000 ft, Cumulonimbus.
Temporalment
l' 25 a les 21 UTC al 26 a les 03 UTC
Vent 17 kt amb direcció variable amb ràfegues de 33 kt
Cel ennuvolat a una alçada de 5000 ft, Cumulonimbus.
tempesta, pluja

TAF: URML 252000Z 2521/2606 26003G10MPS 9999 SCT050CB TEMPO 2521/2603 VRB09G17MPS -TSRA BKN050CB

Observacions i pronòstics meteorològics de més de 4000 aeroports (METAR i TAF).

Les estacions disponibles són els punts grocs i vermells al mapa.

Posi el ratolí al punt desitjat per veure el nom de l'estació.

Feu clic per veure les observacions i els pronòstics meteorològics.

Per canviar el mapa: feu clic els botons verds amb una creu de color negre per apropar; al botó verd amb un guió per allunyar la imatge; o en les fletxes verdes per a mapes adjacents.


METAR-TAF: